Weather at Megiddo Airport

Public forecast

Using degrees Celsius for public forecast. Weather courtesy of forecast.io.

Closest aviation weather report (METAR) to Megiddo Airport

Closest report is Haifa International Airport, 15.8 nm (29.3 km) NW.

2024/05/23 02:50 (retrieved 54 minutes ago)

LLHA 230250Z AUTO VRB03KT 8000 FEW015 21/19 Q1011

Closest aviation forecast (TAF) to Megiddo Airport

Forecast is more than 12 hours old.

Closest forecast is Hmeimim Air Base, 172.1 nm (318.7 km) NNE.

2024/05/21 06:00 (retrieved 2 days ago)

TAF OSLK 210500Z 2106/2206 23008KT CAVOK BECMG 2120/2122 09005KT CAVOK